createdAt,value
2018-05-01T00:00:11.192Z,59.95
2018-05-01T00:02:39.680Z,59.18
2018-05-01T00:05:08.223Z,59.32
2018-05-01T00:07:36.695Z,59.83
2018-05-01T00:10:05.231Z,59.46
2018-05-01T00:12:33.764Z,59.32
2018-05-01T00:15:02.265Z,57.24
2018-05-01T00:17:30.765Z,57.60
2018-05-01T00:19:59.242Z,57.98
2018-05-01T00:22:27.740Z,58.18
2018-05-01T00:24:56.194Z,58.13
2018-05-01T00:27:24.680Z,58.10
2018-05-01T00:29:53.146Z,58.04
2018-05-01T00:32:21.684Z,58.24
2018-05-01T00:34:50.140Z,57.48
2018-05-01T00:37:18.645Z,57.70
2018-05-01T00:39:47.110Z,57.42
2018-05-01T00:42:15.608Z,56.83
2018-05-01T00:44:44.101Z,57.63
2018-05-01T00:47:12.577Z,58.08
2018-05-01T00:49:41.113Z,58.45
2018-05-01T00:52:21.257Z,57.77
2018-05-01T00:54:49.794Z,58.47
2018-05-01T00:57:18.259Z,58.32
2018-05-01T00:59:46.712Z,57.70
2018-05-01T01:02:15.202Z,57.59
2018-05-01T01:04:43.701Z,58.37
2018-05-01T01:07:12.244Z,58.48
2018-05-01T01:09:40.693Z,58.93
2018-05-01T01:12:09.203Z,58.91
2018-05-01T01:14:37.712Z,58.57
2018-05-01T01:17:06.283Z,58.37
2018-05-01T01:19:34.680Z,58.38
2018-05-01T01:22:03.199Z,58.57
2018-05-01T01:24:31.661Z,58.08
2018-05-01T01:27:00.104Z,58.01
2018-05-01T01:29:28.604Z,58.07
2018-05-01T01:32:02.652Z,57.64
2018-05-01T01:34:31.188Z,58.03
2018-05-01T01:36:59.142Z,58.21
2018-05-01T01:39:27.120Z,58.01
2018-05-01T01:41:55.067Z,58.47
2018-05-01T01:44:23.012Z,59.27
2018-05-01T01:46:50.940Z,59.95
2018-05-01T01:49:18.897Z,60.97
2018-05-01T01:51:46.876Z,61.14
2018-05-01T01:54:14.805Z,61.77
2018-05-01T01:56:42.756Z,62.44
2018-05-01T01:59:10.685Z,63.18
2018-05-01T02:01:38.651Z,63.33
2018-05-01T02:04:06.600Z,63.93
2018-05-01T02:06:34.554Z,64.03
2018-05-01T02:09:02.503Z,63.93
2018-05-01T02:11:30.510Z,64.56
2018-05-01T02:13:58.422Z,64.76
2018-05-01T02:16:26.397Z,64.82
2018-05-01T02:18:54.328Z,65.82
2018-05-01T02:21:22.281Z,65.49
2018-05-01T02:23:50.248Z,65.46
2018-05-01T02:26:18.210Z,65.31
2018-05-01T02:28:46.129Z,65.96
2018-05-01T02:31:14.088Z,65.41
2018-05-01T02:33:42.077Z,65.94
2018-05-01T02:36:10.026Z,65.86
2018-05-01T02:38:37.968Z,66.63
2018-05-01T02:41:05.942Z,66.37
2018-05-01T02:43:33.871Z,66.50
2018-05-01T02:46:01.824Z,67.12
2018-05-01T02:48:29.756Z,66.72
2018-05-01T02:50:57.754Z,66.69
2018-05-01T02:53:25.722Z,66.54
2018-05-01T02:55:53.690Z,66.21
2018-05-01T02:58:21.669Z,66.74
2018-05-01T03:00:49.650Z,66.90
2018-05-01T03:03:17.624Z,66.74
2018-05-01T03:05:45.564Z,66.76
2018-05-01T03:08:13.546Z,66.38
2018-05-01T03:10:41.493Z,66.49
2018-05-01T03:13:09.429Z,66.70
2018-05-01T03:15:37.416Z,66.46
2018-05-01T03:18:05.350Z,66.24
2018-05-01T03:20:33.325Z,66.02
2018-05-01T03:23:01.253Z,65.94
2018-05-01T03:25:29.211Z,66.01
2018-05-01T03:27:57.128Z,65.92
2018-05-01T03:30:25.121Z,66.33
2018-05-01T03:32:53.076Z,66.27
2018-05-01T03:35:21.143Z,66.49
2018-05-01T03:37:49.060Z,66.60
2018-05-01T03:40:17.024Z,66.49
2018-05-01T03:42:44.944Z,66.18
2018-05-01T03:45:12.860Z,66.07
2018-05-01T03:47:40.816Z,65.77
2018-05-01T03:50:08.782Z,65.68
2018-05-01T03:52:36.708Z,65.68
2018-05-01T03:55:04.657Z,65.57
2018-05-01T03:57:32.621Z,65.35
2018-05-01T04:00:00.544Z,64.97
2018-05-01T04:02:28.489Z,64.13
2018-05-01T04:04:56.402Z,64.05
2018-05-01T04:07:24.348Z,63.70
2018-05-01T04:09:52.297Z,62.93
2018-05-01T04:12:20.220Z,62.52
2018-05-01T04:14:48.183Z,62.45
2018-05-01T04:17:16.123Z,61.97
2018-05-01T04:19:44.081Z,61.77
2018-05-01T04:22:11.991Z,61.42
2018-05-01T04:24:39.948Z,61.14
2018-05-01T04:27:07.886Z,60.83
2018-05-01T04:29:35.864Z,60.49
2018-05-01T04:32:03.793Z,60.46
2018-05-01T04:34:31.779Z,60.29
2018-05-01T04:36:59.760Z,60.15
2018-05-01T04:39:27.739Z,59.89
2018-05-01T04:41:55.708Z,59.10
2018-05-01T04:44:23.642Z,58.98
2018-05-01T04:46:51.563Z,58.64
2018-05-01T04:49:19.489Z,58.04
2018-05-01T04:51:47.477Z,57.70
2018-05-01T04:54:15.408Z,57.59
2018-05-01T04:56:43.346Z,57.34
2018-05-01T04:59:11.308Z,56.46
2018-05-01T05:01:39.245Z,55.54
2018-05-01T05:04:07.227Z,55.51
2018-05-01T05:06:35.196Z,54.90
2018-05-01T05:09:03.132Z,54.63
2018-05-01T05:11:31.072Z,54.05
2018-05-01T05:13:59.046Z,54.08
2018-05-01T05:16:26.964Z,53.65
2018-05-01T05:18:54.933Z,53.03
2018-05-01T05:21:22.860Z,53.09
2018-05-01T05:23:50.820Z,52.73
2018-05-01T05:26:18.745Z,52.37
2018-05-01T05:28:46.740Z,51.93
2018-05-01T05:31:14.672Z,51.10
2018-05-01T05:33:42.628Z,49.80
2018-05-01T05:36:10.548Z,49.29
2018-05-01T05:38:38.728Z,48.78
2018-05-01T05:41:06.699Z,48.65
2018-05-01T05:43:34.668Z,48.28
2018-05-01T05:46:02.640Z,47.76
2018-05-01T05:48:30.604Z,47.73
2018-05-01T05:50:58.522Z,47.10
2018-05-01T05:53:26.509Z,46.63
2018-05-01T05:55:54.482Z,46.44
2018-05-01T05:58:22.433Z,46.54
2018-05-01T06:00:50.392Z,45.98
2018-05-01T06:03:18.316Z,46.54
2018-05-01T06:05:46.280Z,46.02
2018-05-01T06:08:14.301Z,45.58
2018-05-01T06:10:42.216Z,45.22
2018-05-01T06:13:10.180Z,45.33
2018-05-01T06:15:38.108Z,44.74
2018-05-01T06:18:06.080Z,44.04
2018-05-01T06:20:34.041Z,44.11
2018-05-01T06:23:01.972Z,43.26
2018-05-01T06:25:29.941Z,43.53
2018-05-01T06:27:57.878Z,43.70
2018-05-01T06:30:25.838Z,42.83
2018-05-01T06:32:53.770Z,42.83
2018-05-01T06:35:21.720Z,42.14
2018-05-01T06:37:49.691Z,42.60
2018-05-01T06:40:17.612Z,42.66
2018-05-01T06:42:45.564Z,42.78
2018-05-01T06:45:13.488Z,41.34
2018-05-01T06:47:41.484Z,41.92
2018-05-01T06:50:09.405Z,42.12
2018-05-01T06:52:37.437Z,42.49
2018-05-01T06:55:05.368Z,41.87
2018-05-01T06:57:33.297Z,40.75
2018-05-01T07:00:01.259Z,40.23
2018-05-01T07:02:29.216Z,39.68
2018-05-01T07:04:57.192Z,39.77
2018-05-01T07:07:25.114Z,40.67
2018-05-01T07:09:53.041Z,40.11
2018-05-01T07:12:21.032Z,40.28
2018-05-01T07:14:48.965Z,40.82
2018-05-01T07:17:16.881Z,40.69
2018-05-01T07:19:44.836Z,40.75
2018-05-01T07:22:12.784Z,40.00
2018-05-01T07:24:40.737Z,39.54
2018-05-01T07:27:08.647Z,39.06
2018-05-01T07:29:36.603Z,38.94
2018-05-01T07:32:04.507Z,38.81
2018-05-01T07:34:32.493Z,38.88
2018-05-01T07:37:00.456Z,39.34
2018-05-01T07:39:28.377Z,38.58
2018-05-01T07:41:56.337Z,38.84
2018-05-01T07:44:24.304Z,39.31
2018-05-01T07:46:52.256Z,39.05
2018-05-01T07:49:20.226Z,38.26
2018-05-01T07:51:48.193Z,37.79
2018-05-01T07:54:16.180Z,37.82
2018-05-01T07:56:44.125Z,37.19
2018-05-01T07:59:12.093Z,37.45
2018-05-01T08:01:40.040Z,37.04
2018-05-01T08:04:07.936Z,37.37
2018-05-01T08:06:35.902Z,37.16
2018-05-01T08:09:03.831Z,37.06
2018-05-01T08:11:31.788Z,37.01
2018-05-01T08:13:59.713Z,37.24
2018-05-01T08:16:27.708Z,37.44
2018-05-01T08:18:55.664Z,36.94
2018-05-01T08:21:23.570Z,36.84
2018-05-01T08:23:51.565Z,36.86
2018-05-01T08:26:19.480Z,36.93
2018-05-01T08:28:47.434Z,36.56
2018-05-01T08:31:15.384Z,36.50
2018-05-01T08:33:43.323Z,36.87
2018-05-01T08:36:11.244Z,36.79
2018-05-01T08:38:39.204Z,36.64
2018-05-01T08:41:07.156Z,36.21
2018-05-01T08:43:35.072Z,36.23
2018-05-01T08:46:03.016Z,36.75
2018-05-01T08:48:30.937Z,36.43
2018-05-01T08:50:58.936Z,36.14
2018-05-01T08:53:26.900Z,36.22
2018-05-01T08:55:54.908Z,35.72
2018-05-01T08:58:22.830Z,35.53
2018-05-01T09:00:50.788Z,35.82
2018-05-01T09:03:18.710Z,35.09
2018-05-01T09:05:46.664Z,34.50
2018-05-01T09:08:14.558Z,34.73
2018-05-01T09:10:42.512Z,34.44
2018-05-01T09:13:10.444Z,33.97
2018-05-01T09:15:38.397Z,33.26
2018-05-01T09:18:06.536Z,33.06
2018-05-01T09:20:34.349Z,33.45
2018-05-01T09:23:02.264Z,34.00
2018-05-01T09:25:30.233Z,33.95
2018-05-01T09:27:58.144Z,33.36
2018-05-01T09:30:26.108Z,32.76
2018-05-01T09:32:54.028Z,33.15
2018-05-01T09:35:21.988Z,33.89
2018-05-01T09:37:49.952Z,35.03
2018-05-01T09:40:17.903Z,33.92
2018-05-01T09:42:45.877Z,34.51
2018-05-01T09:45:13.830Z,34.69
2018-05-01T09:47:42.680Z,34.02
2018-05-01T09:50:10.660Z,34.20
2018-05-01T09:52:39.138Z,33.75
2018-05-01T09:55:07.633Z,34.41
2018-05-01T09:57:36.089Z,34.74
2018-05-01T10:00:04.617Z,33.48
2018-05-01T10:02:33.106Z,32.80
2018-05-01T10:05:01.575Z,33.94
2018-05-01T10:07:30.099Z,33.10
2018-05-01T10:09:58.544Z,33.82
2018-05-01T10:12:27.042Z,33.21
2018-05-01T10:14:55.508Z,34.06
2018-05-01T10:17:24.000Z,32.99
2018-05-01T10:19:52.465Z,34.63
2018-05-01T10:22:20.964Z,34.37
2018-05-01T10:24:49.446Z,33.77
2018-05-01T10:27:17.929Z,32.24
2018-05-01T10:29:46.424Z,32.46
2018-05-01T10:32:14.932Z,32.58
2018-05-01T10:34:43.377Z,31.68
2018-05-01T10:37:11.880Z,32.08
2018-05-01T10:39:40.385Z,32.52
2018-05-01T10:42:08.868Z,32.80
2018-05-01T10:44:37.321Z,33.00
2018-05-01T10:47:05.780Z,32.45
2018-05-01T10:49:34.289Z,32.04
2018-05-01T10:52:02.781Z,32.91
2018-05-01T10:54:31.245Z,33.08
2018-05-01T10:56:59.721Z,32.13
2018-05-01T10:59:28.172Z,31.55
2018-05-01T11:01:56.695Z,31.17
2018-05-01T11:04:25.152Z,31.53
2018-05-01T11:06:53.603Z,32.28
2018-05-01T11:09:22.095Z,31.94
2018-05-01T11:11:50.618Z,31.92
2018-05-01T11:14:19.116Z,32.03
2018-05-01T11:16:47.596Z,31.00
2018-05-01T11:19:16.052Z,31.30
2018-05-01T11:21:44.516Z,31.86
2018-05-01T11:24:13.010Z,31.80
2018-05-01T11:26:41.496Z,32.23
2018-05-01T11:29:09.956Z,31.62
2018-05-01T11:31:38.438Z,31.40
2018-05-01T11:34:06.889Z,32.00
2018-05-01T11:36:35.388Z,32.30
2018-05-01T11:39:03.945Z,32.40
2018-05-01T11:41:32.448Z,32.79
2018-05-01T11:44:00.906Z,32.86
2018-05-01T11:46:29.577Z,33.05
2018-05-01T11:48:57.925Z,32.82
2018-05-01T11:51:26.375Z,32.52
2018-05-01T11:53:54.862Z,32.83
2018-05-01T11:56:23.317Z,32.73
2018-05-01T11:58:51.804Z,32.41
2018-05-01T12:01:20.261Z,32.43
2018-05-01T12:03:48.762Z,32.42
2018-05-01T12:06:17.217Z,31.58
2018-05-01T12:08:45.720Z,31.52
2018-05-01T12:11:14.179Z,31.76
2018-05-01T12:13:42.629Z,31.64
2018-05-01T12:16:11.222Z,31.76
2018-05-01T12:18:39.707Z,32.27
2018-05-01T12:21:08.209Z,32.43
2018-05-01T12:23:36.660Z,32.49
2018-05-01T12:26:05.216Z,32.88
2018-05-01T12:28:33.720Z,32.77
2018-05-01T12:31:02.155Z,33.21
2018-05-01T12:33:30.637Z,32.71
2018-05-01T12:35:59.080Z,33.11
2018-05-01T12:38:27.580Z,33.69
2018-05-01T12:40:56.036Z,33.28
2018-05-01T12:43:24.530Z,32.04
2018-05-01T12:45:53.034Z,32.74
2018-05-01T12:48:21.663Z,30.97
2018-05-01T12:50:50.176Z,31.42
2018-05-01T12:53:18.658Z,32.90
2018-05-01T12:55:47.108Z,32.87
2018-05-01T12:58:15.602Z,31.52
2018-05-01T13:00:44.047Z,31.42
2018-05-01T13:03:12.539Z,30.76
2018-05-01T13:05:41.007Z,30.94
2018-05-01T13:08:09.497Z,30.91
2018-05-01T13:10:38.030Z,30.91
2018-05-01T13:13:06.613Z,30.16
2018-05-01T13:15:35.052Z,30.66
2018-05-01T13:18:03.572Z,31.49
2018-05-01T13:20:32.068Z,31.53
2018-05-01T13:23:00.570Z,31.41
2018-05-01T13:25:29.108Z,32.05
2018-05-01T13:27:57.569Z,31.93
2018-05-01T13:30:26.048Z,31.50
2018-05-01T13:32:54.500Z,31.71
2018-05-01T13:35:22.992Z,32.08
2018-05-01T13:37:51.495Z,32.29
2018-05-01T13:40:19.974Z,31.91
2018-05-01T13:42:48.428Z,31.50
2018-05-01T13:45:16.968Z,31.39
2018-05-01T13:47:45.404Z,30.82
2018-05-01T13:50:13.892Z,30.79
2018-05-01T13:52:42.367Z,30.79
2018-05-01T13:55:10.857Z,30.89
2018-05-01T13:57:39.336Z,31.40
2018-05-01T14:00:07.785Z,31.56
2018-05-01T14:02:36.276Z,31.16
2018-05-01T14:05:04.763Z,30.80
2018-05-01T14:07:33.201Z,30.04
2018-05-01T14:10:01.704Z,30.15
2018-05-01T14:12:30.219Z,30.00
2018-05-01T14:14:58.700Z,29.96
2018-05-01T14:17:27.190Z,29.48
2018-05-01T14:19:55.633Z,29.41
2018-05-01T14:22:24.085Z,30.10
2018-05-01T14:24:52.576Z,30.65
2018-05-01T14:27:21.068Z,31.13
2018-05-01T14:29:49.556Z,31.72
2018-05-01T14:32:18.005Z,32.30
2018-05-01T14:34:46.497Z,32.60
2018-05-01T14:37:14.956Z,33.17
2018-05-01T14:39:43.461Z,32.57
2018-05-01T14:42:12.062Z,32.83
2018-05-01T14:44:40.492Z,33.13
2018-05-01T14:47:08.977Z,33.32
2018-05-01T14:49:37.488Z,33.65
2018-05-01T14:52:05.940Z,34.04
2018-05-01T14:54:34.486Z,34.11
2018-05-01T14:57:02.978Z,34.34
2018-05-01T14:59:31.450Z,34.32
2018-05-01T15:01:59.940Z,34.68
2018-05-01T15:04:28.396Z,35.83
2018-05-01T15:06:56.894Z,35.81
2018-05-01T15:09:25.348Z,35.53
2018-05-01T15:11:53.884Z,35.94
2018-05-01T15:14:22.329Z,36.31
2018-05-01T15:16:50.839Z,36.44
2018-05-01T15:19:19.336Z,36.12
2018-05-01T15:21:47.797Z,36.14
2018-05-01T15:24:16.245Z,36.64
2018-05-01T15:26:44.689Z,36.71
2018-05-01T15:29:13.149Z,37.23
2018-05-01T15:31:41.610Z,37.55
2018-05-01T15:34:10.126Z,37.61
2018-05-01T15:36:38.588Z,37.99
2018-05-01T15:39:07.048Z,38.13
2018-05-01T15:41:35.553Z,37.86
2018-05-01T15:44:04.057Z,37.63
2018-05-01T15:46:32.519Z,37.22
2018-05-01T15:49:01.042Z,36.88
2018-05-01T15:51:29.513Z,37.08
2018-05-01T15:53:57.988Z,37.75
2018-05-01T15:56:26.535Z,37.58
2018-05-01T15:58:55.011Z,37.25
2018-05-01T16:01:23.497Z,37.53
2018-05-01T16:03:52.017Z,37.63
2018-05-01T16:06:20.484Z,37.64
2018-05-01T16:08:48.989Z,37.71
2018-05-01T16:11:17.430Z,37.64
2018-05-01T16:13:45.943Z,37.76
2018-05-01T16:16:14.420Z,37.84
2018-05-01T16:18:42.908Z,37.99
2018-05-01T16:21:11.480Z,38.03
2018-05-01T16:23:39.928Z,38.13
2018-05-01T16:26:08.431Z,38.44
2018-05-01T16:28:36.880Z,38.39
2018-05-01T16:31:05.389Z,38.44
2018-05-01T16:33:33.854Z,38.77
2018-05-01T16:36:02.463Z,38.84
2018-05-01T16:38:30.936Z,38.79
2018-05-01T16:40:59.436Z,38.81
2018-05-01T16:43:27.919Z,39.03
2018-05-01T16:45:56.375Z,39.23
2018-05-01T16:48:24.872Z,39.33
2018-05-01T16:50:53.438Z,39.55
2018-05-01T16:53:21.923Z,39.87
2018-05-01T16:55:50.413Z,39.90
2018-05-01T16:58:18.904Z,39.82
2018-05-01T17:00:47.396Z,39.88
2018-05-01T17:03:15.892Z,40.46
2018-05-01T17:05:44.349Z,40.74
2018-05-01T17:08:12.812Z,41.30
2018-05-01T17:10:41.321Z,40.60
2018-05-01T17:13:09.787Z,40.52
2018-05-01T17:15:38.249Z,40.45
2018-05-01T17:18:06.744Z,40.68
2018-05-01T17:20:35.173Z,40.74
2018-05-01T17:23:03.652Z,40.72
2018-05-01T17:25:32.107Z,41.08
2018-05-01T17:28:00.653Z,41.24
2018-05-01T17:30:29.129Z,41.61
2018-05-01T17:32:57.588Z,41.73
2018-05-01T17:35:26.152Z,42.04
2018-05-01T17:37:54.620Z,42.31
2018-05-01T17:40:23.076Z,42.15
2018-05-01T17:42:51.565Z,42.52
2018-05-01T17:45:20.026Z,42.59
2018-05-01T17:47:48.516Z,42.84
2018-05-01T17:50:17.012Z,42.92
2018-05-01T17:52:45.500Z,43.03
2018-05-01T17:55:13.993Z,43.48
2018-05-01T17:57:42.488Z,43.38
2018-05-01T18:00:10.946Z,43.37
2018-05-01T18:02:39.437Z,43.32
2018-05-01T18:05:07.892Z,43.62
2018-05-01T18:07:36.388Z,43.61
2018-05-01T18:10:04.840Z,43.69
2018-05-01T18:12:33.361Z,43.78
2018-05-01T18:15:01.824Z,44.13
2018-05-01T18:17:30.288Z,44.49
2018-05-01T18:19:58.782Z,44.70
2018-05-01T18:22:27.254Z,44.97
2018-05-01T18:24:55.749Z,45.60
2018-05-01T18:27:24.237Z,45.46
2018-05-01T18:29:52.721Z,45.40
2018-05-01T18:32:21.182Z,45.54
2018-05-01T18:34:49.647Z,45.47
2018-05-01T18:37:18.136Z,46.04
2018-05-01T18:39:46.612Z,45.49
2018-05-01T18:42:15.108Z,45.86
2018-05-01T18:44:43.605Z,46.37
2018-05-01T18:47:12.056Z,46.51
2018-05-01T18:49:40.552Z,46.67
2018-05-01T18:52:09.044Z,46.88
2018-05-01T18:54:37.597Z,47.28
2018-05-01T18:57:06.104Z,47.32
2018-05-01T18:59:34.585Z,47.34
2018-05-01T19:02:03.085Z,47.56
2018-05-01T19:04:31.669Z,47.51
2018-05-01T19:07:00.101Z,47.54
2018-05-01T19:09:28.566Z,48.04
2018-05-01T19:11:57.047Z,47.84
2018-05-01T19:14:25.580Z,48.10
2018-05-01T19:16:54.073Z,48.40
2018-05-01T19:19:22.516Z,48.35
2018-05-01T19:21:51.000Z,48.56
2018-05-01T19:24:19.511Z,49.07
2018-05-01T19:26:47.982Z,49.09
2018-05-01T19:29:16.473Z,49.32
2018-05-01T19:31:44.944Z,49.67
2018-05-01T19:34:13.473Z,49.56
2018-05-01T19:36:42.004Z,49.81
2018-05-01T19:39:10.462Z,49.89
2018-05-01T19:41:38.923Z,49.89
2018-05-01T19:44:07.417Z,49.91
2018-05-01T19:46:35.931Z,49.91
2018-05-01T19:49:04.432Z,50.00
2018-05-01T19:51:32.924Z,49.82
2018-05-01T19:54:01.424Z,49.95
2018-05-01T19:56:29.959Z,50.10
2018-05-01T19:58:58.452Z,50.06
2018-05-01T20:01:26.969Z,49.97
2018-05-01T20:03:55.449Z,50.01
2018-05-01T20:06:23.949Z,50.05
2018-05-01T20:08:52.451Z,50.03
2018-05-01T20:11:20.945Z,49.98
2018-05-01T20:13:49.445Z,50.07
2018-05-01T20:16:17.940Z,50.29
2018-05-01T20:18:46.389Z,50.36
2018-05-01T20:21:14.844Z,50.39
2018-05-01T20:23:43.341Z,50.24
2018-05-01T20:26:11.808Z,50.46
2018-05-01T20:28:40.273Z,50.50
2018-05-01T20:31:08.772Z,50.28
2018-05-01T20:33:37.278Z,50.60
2018-05-01T20:36:05.767Z,50.48
2018-05-01T20:38:34.268Z,50.74
2018-05-01T20:41:02.763Z,50.41
2018-05-01T20:43:31.284Z,50.57
2018-05-01T20:45:59.808Z,50.18
2018-05-01T20:48:28.328Z,50.08
2018-05-01T20:50:56.824Z,49.96
2018-05-01T20:53:25.325Z,49.83
2018-05-01T20:55:53.772Z,50.55
2018-05-01T20:58:22.228Z,50.67
2018-05-01T21:00:50.724Z,50.25
2018-05-01T21:03:19.210Z,50.38
2018-05-01T21:05:47.672Z,50.64
2018-05-01T21:08:16.183Z,50.25
2018-05-01T21:10:44.704Z,50.59
2018-05-01T21:13:13.200Z,50.66
2018-05-01T21:15:41.656Z,51.28
2018-05-01T21:18:10.156Z,51.13
2018-05-01T21:20:38.640Z,51.51
2018-05-01T21:23:07.144Z,51.55
2018-05-01T21:25:35.620Z,51.59
2018-05-01T21:28:04.124Z,51.60
2018-05-01T21:30:32.591Z,51.54
2018-05-01T21:33:01.097Z,51.90
2018-05-01T21:35:29.578Z,52.28
2018-05-01T21:37:58.040Z,51.91
2018-05-01T21:40:26.537Z,51.90
2018-05-01T21:42:55.090Z,51.78
2018-05-01T21:45:23.578Z,51.89
2018-05-01T21:47:52.045Z,51.93
2018-05-01T21:50:20.517Z,51.93
2018-05-01T21:52:48.968Z,52.03
2018-05-01T21:55:17.451Z,52.19
2018-05-01T21:57:45.956Z,51.57
2018-05-01T22:00:14.424Z,51.91
2018-05-01T22:02:42.904Z,51.46
2018-05-01T22:05:11.407Z,52.22
2018-05-01T22:07:39.852Z,52.09
2018-05-01T22:10:08.387Z,52.33
2018-05-01T22:12:36.864Z,52.23
2018-05-01T22:15:05.373Z,52.22
2018-05-01T22:17:33.901Z,52.34
2018-05-01T22:20:02.365Z,52.25
2018-05-01T22:22:30.860Z,52.17
2018-05-01T22:24:59.308Z,52.25
2018-05-01T22:27:27.793Z,52.25
2018-05-01T22:29:56.256Z,52.23
2018-05-01T22:32:24.752Z,52.21
2018-05-01T22:34:53.201Z,52.14
2018-05-01T22:37:21.692Z,52.13
2018-05-01T22:39:50.137Z,51.90
2018-05-01T22:42:18.658Z,51.88
2018-05-01T22:44:47.124Z,51.79
2018-05-01T22:47:15.635Z,51.60
2018-05-01T22:49:44.125Z,51.45
2018-05-01T22:52:12.572Z,51.33
2018-05-01T22:54:41.065Z,51.32
2018-05-01T22:57:09.577Z,51.51
2018-05-01T22:59:38.070Z,51.53
2018-05-01T23:02:06.532Z,51.70
2018-05-01T23:04:35.072Z,51.85
2018-05-01T23:07:03.556Z,51.64
2018-05-01T23:09:32.061Z,51.94
2018-05-01T23:12:00.509Z,52.29
2018-05-01T23:14:29.043Z,52.54
2018-05-01T23:16:57.496Z,52.42
2018-05-01T23:19:25.998Z,52.58
2018-05-01T23:21:54.449Z,52.48
2018-05-01T23:24:22.920Z,52.81
2018-05-01T23:26:51.406Z,52.92
2018-05-01T23:29:19.901Z,52.97
2018-05-01T23:31:48.393Z,53.20
2018-05-01T23:34:16.845Z,53.21
2018-05-01T23:36:45.340Z,53.29
2018-05-01T23:39:13.787Z,53.47
2018-05-01T23:41:42.237Z,53.64
2018-05-01T23:44:10.712Z,53.82
2018-05-01T23:46:39.156Z,53.63
2018-05-01T23:49:07.660Z,54.00
2018-05-01T23:51:36.115Z,53.93
2018-05-01T23:54:04.631Z,54.29
2018-05-01T23:56:33.102Z,54.37
2018-05-01T23:59:01.601Z,54.81
